Time;durP1;ratioP1;P1;durP2;ratioP2;P2;SDS_P1;SDS_P2;PMS_P1;PMS_P2;Temp;Humidity;BMP_temperature;BMP_pressure;BME280_temperature;BME280_humidity;BME280_pressure;Samples;Min_cycle;Max_cycle;Signal;HPM_P1;HPM_P2
2023/07/03 00:01:00;;;;;;;85.75;77.70;;;;;;;19.07;100.00;100456.03;5055695;28;20514;-81
2023/07/03 00:03:27;;;;;;;89.30;81.22;;;;;;;19.30;100.00;100452.75;5063925;28;20071;-81
2023/07/03 00:05:55;;;;;;;75.93;68.78;;;;;;;19.34;100.00;100456.56;5061975;28;20049;-81
2023/07/03 00:08:22;;;;;;;79.72;72.32;;;;;;;19.27;100.00;100456.00;5062110;28;20466;-81
2023/07/03 00:10:49;;;;;;;80.13;72.53;;;;;;;19.22;100.00;100459.50;5052057;28;20052;-81
2023/07/03 00:13:16;;;;;;;71.53;64.60;;;;;;;19.26;100.00;100459.78;5064066;28;20057;-81
2023/07/03 00:15:44;;;;;;;74.13;67.30;;;;;;;19.55;100.00;100443.06;5058272;28;20052;-81
2023/07/03 00:18:11;;;;;;;92.47;84.30;;;;;;;19.08;100.00;100458.44;5060849;28;20091;-81
2023/07/03 00:20:39;;;;;;;88.13;80.05;;;;;;;19.10;100.00;100464.34;5064134;28;20052;-81
2023/07/03 00:23:06;;;;;;;77.40;69.97;;;;;;;19.02;100.00;100456.00;5068221;28;20131;-81
2023/07/03 00:25:33;;;;;;;76.63;69.13;;;;;;;19.01;100.00;100459.78;5067456;28;20052;-81
2023/07/03 00:28:00;;;;;;;88.20;80.18;;;;;;;19.07;100.00;100464.09;5052695;28;20040;-81
2023/07/03 00:30:26;;;;;;;92.53;84.43;;;;;;;18.90;100.00;100469.72;5052333;28;20041;-82
2023/07/03 00:32:55;;;;;;;80.20;73.05;;;;;;;19.27;100.00;100465.97;5052434;28;20060;-81
2023/07/03 00:35:22;;;;;;;81.75;74.38;;;;;;;18.68;100.00;100464.53;5051642;28;20041;-81
2023/07/03 00:37:48;;;;;;;87.68;79.60;;;;;;;18.92;100.00;100464.88;5057843;28;20056;-82
2023/07/03 00:40:15;;;;;;;85.15;77.45;;;;;;;18.90;100.00;100457.06;5051758;28;20060;-81
2023/07/03 00:42:42;;;;;;;85.18;77.35;;;;;;;18.45;100.00;100461.25;5051410;28;20045;-81
2023/07/03 00:45:10;;;;;;;91.68;83.72;;;;;;;18.90;100.00;100467.03;5057510;28;20045;-81
2023/07/03 00:47:38;;;;;;;89.70;81.60;;;;;;;18.72;100.00;100473.69;5060319;28;20091;-81
2023/07/03 00:50:07;;;;;;;84.10;76.28;;;;;;;19.03;100.00;100477.25;5061524;28;20510;-81
2023/07/03 00:52:34;;;;;;;90.07;82.00;;;;;;;18.85;100.00;100472.38;5051956;28;20537;-81
2023/07/03 00:55:01;;;;;;;93.20;84.75;;;;;;;18.78;100.00;100472.66;5063245;28;20048;-82
2023/07/03 00:57:29;;;;;;;85.93;77.72;;;;;;;18.92;100.00;100471.06;5052523;28;20536;-81
2023/07/03 00:59:57;;;;;;;99.43;91.30;;;;;;;18.54;100.00;100475.78;5051879;28;20064;-82
2023/07/03 01:02:28;;;;;;;91.40;83.13;;;;;;;18.76;100.00;100478.31;5059196;28;20131;-81
2023/07/03 01:05:01;;;;;;;83.10;75.50;;;;;;;18.81;100.00;100476.69;5063630;28;20445;-82
2023/07/03 01:07:32;;;;;;;107.70;98.70;;;;;;;18.75;100.00;100481.25;5062929;28;20060;-81
2023/07/03 01:10:04;;;;;;;105.07;96.22;;;;;;;18.87;100.00;100472.94;5061048;28;20434;-81
2023/07/03 01:12:34;;;;;;;109.70;100.63;;;;;;;18.36;100.00;100476.25;5065190;28;20135;-81
2023/07/03 01:15:04;;;;;;;96.68;88.28;;;;;;;18.39;100.00;100483.00;5058248;28;20049;-82
2023/07/03 01:17:33;;;;;;;82.18;74.40;;;;;;;18.76;100.00;100480.19;5062213;28;20056;-81
2023/07/03 01:20:03;;;;;;;77.70;70.47;;;;;;;18.90;100.00;100483.16;5061714;28;20054;-82
2023/07/03 01:22:42;;;;;;;92.72;84.53;;;;;;;18.27;100.00;100480.53;5066256;28;20048;-81
2023/07/03 01:25:14;;;;;;;90.75;82.78;;;;;;;18.39;100.00;100486.50;5063375;28;20053;-81
2023/07/03 01:27:44;;;;;;;92.07;83.88;;;;;;;18.70;100.00;100489.31;5053775;28;20554;-82
2023/07/03 01:30:15;;;;;;;87.32;79.38;;;;;;;18.71;100.00;100485.53;5066852;28;20775;-81
2023/07/03 01:32:44;;;;;;;87.40;79.60;;;;;;;18.50;100.00;100490.03;5062299;28;20049;-81
2023/07/03 01:35:12;;;;;;;110.13;100.93;;;;;;;18.11;100.00;100482.34;5062677;28;20048;-81
2023/07/03 01:37:41;;;;;;;105.15;95.97;;;;;;;18.23;100.00;100495.56;5061193;28;20051;-80
2023/07/03 01:40:14;;;;;;;102.47;93.47;;;;;;;18.05;100.00;100484.19;5060057;28;20081;-82
2023/07/03 01:42:41;;;;;;;89.32;80.60;;;;;;;18.45;100.00;100492.69;5062578;28;20438;-80
2023/07/03 01:45:08;;;;;;;93.47;85.32;;;;;;;18.48;100.00;100486.78;5059858;28;20057;-81
2023/07/03 01:47:35;;;;;;;89.78;81.38;;;;;;;18.54;100.00;100491.91;5059027;28;20146;-81
2023/07/03 01:50:03;;;;;;;122.78;112.55;;;;;;;18.02;100.00;100487.41;5060499;28;20045;-81
2023/07/03 01:52:37;;;;;;;93.97;85.68;;;;;;;18.51;100.00;100491.66;5060389;28;20126;-81
2023/07/03 01:55:09;;;;;;;87.95;80.25;;;;;;;18.62;100.00;100485.22;5058413;28;20052;-81
2023/07/03 01:57:46;;;;;;;102.47;93.88;;;;;;;18.93;100.00;100485.31;5064714;28;20049;-80
2023/07/03 02:00:19;;;;;;;98.40;89.80;;;;;;;18.49;100.00;100488.44;5058593;28;20063;-81
2023/07/03 02:02:50;;;;;;;112.03;102.57;;;;;;;18.72;100.00;100487.13;5055985;28;20148;-81
2023/07/03 02:05:22;;;;;;;127.25;117.18;;;;;;;18.82;100.00;100491.75;5063557;28;20059;-80
2023/07/03 02:07:53;;;;;;;107.65;98.60;;;;;;;18.62;100.00;100487.94;5057786;28;20164;-81
2023/07/03 02:10:20;;;;;;;112.32;102.72;;;;;;;18.60;100.00;100492.75;5060300;28;20056;-81
2023/07/03 02:12:48;;;;;;;120.47;110.53;;;;;;;18.54;100.00;100496.50;5065832;28;20060;-81
2023/07/03 02:15:16;;;;;;;121.57;111.28;;;;;;;18.36;100.00;100502.34;5062812;28;20059;-81
2023/07/03 02:17:43;;;;;;;114.38;104.88;;;;;;;18.60;100.00;100500.00;5061434;28;20044;-81
2023/07/03 02:20:14;;;;;;;128.45;118.13;;;;;;;18.38;100.00;100497.53;5059338;28;20048;-81
2023/07/03 02:22:41;;;;;;;126.97;116.80;;;;;;;18.58;100.00;100510.22;5051763;28;20045;-81
2023/07/03 02:25:09;;;;;;;127.55;117.53;;;;;;;18.39;100.00;100504.50;5057010;28;20503;-81
2023/07/03 02:27:36;;;;;;;121.22;111.55;;;;;;;18.12;100.00;100510.84;5063579;28;20050;-81
2023/07/03 02:30:05;;;;;;;105.10;96.20;;;;;;;18.28;100.00;100517.13;5050913;28;20053;-81
2023/07/03 02:32:36;;;;;;;101.13;92.35;;;;;;;18.06;100.00;100512.72;5058654;28;20059;-81
2023/07/03 02:35:04;;;;;;;86.25;78.15;;;;;;;18.53;100.00;100521.78;5058808;28;20071;-81
2023/07/03 02:37:31;;;;;;;83.47;76.20;;;;;;;18.38;100.00;100533.28;5057207;28;20492;-81
2023/07/03 02:39:58;;;;;;;76.43;69.00;;;;;;;18.05;100.00;100532.56;5059550;28;20049;-81
2023/07/03 02:42:25;;;;;;;78.30;70.28;;;;;;;18.26;100.00;100528.13;5060229;28;20048;-81
2023/07/03 02:44:53;;;;;;;68.55;62.05;;;;;;;18.48;100.00;100530.63;5057506;28;20049;-81
2023/07/03 02:47:21;;;;;;;75.28;68.30;;;;;;;18.38;100.00;100535.16;5062658;28;20049;-81
2023/07/03 02:49:48;;;;;;;80.82;73.00;;;;;;;17.90;100.00;100531.66;5065647;28;20505;-81
2023/07/03 02:52:15;;;;;;;72.32;65.43;;;;;;;18.27;100.00;100532.41;5058838;28;20442;-81
2023/07/03 02:54:42;;;;;;;79.10;72.15;;;;;;;17.97;100.00;100541.13;5058793;28;20041;-81
2023/07/03 02:57:09;;;;;;;74.28;67.05;;;;;;;18.50;100.00;100552.69;5051751;28;20076;-81
2023/07/03 02:59:35;;;;;;;79.82;72.40;;;;;;;17.90;100.00;100545.09;5061130;28;20460;-81
2023/07/03 03:02:02;;;;;;;76.40;69.32;;;;;;;18.70;100.00;100543.91;5060076;28;20060;-81
2023/07/03 03:04:31;;;;;;;74.03;67.07;;;;;;;18.62;100.00;100551.66;5055397;28;20094;-81
2023/07/03 03:06:58;;;;;;;75.78;68.65;;;;;;;18.72;100.00;100551.69;5058522;28;20053;-81
2023/07/03 03:09:25;;;;;;;78.57;70.95;;;;;;;18.38;100.00;100549.41;5059497;28;20045;-81
2023/07/03 03:11:51;;;;;;;75.45;68.40;;;;;;;18.39;100.00;100552.91;5058857;28;20052;-81
2023/07/03 03:14:18;;;;;;;74.85;68.13;;;;;;;18.53;100.00;100552.16;5059593;28;20049;-81
2023/07/03 03:16:45;;;;;;;69.93;63.13;;;;;;;18.60;100.00;100549.22;5061192;28;20056;-81
2023/07/03 03:19:12;;;;;;;71.82;65.00;;;;;;;18.62;100.00;100554.38;5060045;28;20036;-81
2023/07/03 03:21:41;;;;;;;78.28;71.07;;;;;;;18.81;100.00;100554.72;5058623;28;20056;-81
2023/07/03 03:24:08;;;;;;;77.75;70.68;;;;;;;18.71;100.00;100555.47;5054940;28;20071;-81
2023/07/03 03:26:35;;;;;;;77.05;69.97;;;;;;;18.88;100.00;100555.28;5056329;28;20053;-81
2023/07/03 03:29:02;;;;;;;82.13;74.65;;;;;;;18.84;100.00;100559.56;5058321;28;20570;-81
2023/07/03 03:31:29;;;;;;;81.78;74.30;;;;;;;18.92;100.00;100564.44;5055625;28;20068;-81
2023/07/03 03:33:56;;;;;;;77.32;69.70;;;;;;;19.07;100.00;100564.47;5058755;28;20048;-81
2023/07/03 03:36:23;;;;;;;79.68;72.28;;;;;;;19.32;100.00;100560.22;5060045;28;20053;-81
2023/07/03 03:38:51;;;;;;;92.80;84.15;;;;;;;19.36;100.00;100570.16;5059497;28;20143;-81
2023/07/03 03:41:18;;;;;;;92.05;84.10;;;;;;;19.44;100.00;100568.84;5059997;28;20048;-81
2023/07/03 03:43:47;;;;;;;93.47;85.47;;;;;;;19.56;100.00;100574.78;5062428;28;20041;-80
2023/07/03 03:46:14;;;;;;;82.13;74.93;;;;;;;19.59;100.00;100576.13;5049143;28;20440;-81
2023/07/03 03:48:40;;;;;;;81.22;74.28;;;;;;;19.62;100.00;100576.38;5056291;28;20051;-81
2023/07/03 03:51:09;;;;;;;83.90;76.60;;;;;;;19.78;100.00;100566.44;5056627;28;20076;-81
2023/07/03 03:53:35;;;;;;;87.75;80.05;;;;;;;19.75;100.00;100571.56;5052108;28;20056;-81
2023/07/03 03:56:04;;;;;;;85.97;78.07;;;;;;;19.86;100.00;100571.28;5058074;28;20060;-81
2023/07/03 03:58:31;;;;;;;99.95;91.80;;;;;;;20.01;100.00;100569.66;5057537;28;20532;-80
2023/07/03 04:00:58;;;;;;;96.82;87.97;;;;;;;20.19;100.00;100573.69;5057415;28;20140;-81
2023/07/03 04:03:25;;;;;;;98.53;90.18;;;;;;;20.22;100.00;100578.53;5060548;28;20498;-81
2023/07/03 04:05:52;;;;;;;95.07;86.70;;;;;;;20.41;100.00;100586.81;5058098;28;20425;-81
2023/07/03 04:08:19;;;;;;;88.38;80.88;;;;;;;20.46;100.00;100579.53;5048987;28;20057;-81
2023/07/03 04:10:46;;;;;;;86.13;78.15;;;;;;;20.49;100.00;100581.69;5052587;28;20425;-81
2023/07/03 04:13:14;;;;;;;84.15;76.78;;;;;;;20.63;100.00;100581.09;5053063;28;20521;-81
2023/07/03 04:15:57;;;;;;;89.10;81.38;;;;;;;20.74;100.00;100580.78;5061010;28;20049;-81
2023/07/03 04:18:24;;;;;;;;;;;;;;;20.76;100.00;100589.44;5060136;28;20438;-81
2023/07/03 04:20:51;;;;;;;91.75;83.53;;;;;;;20.86;100.00;100587.75;5065570;28;19928;-81
2023/07/03 04:23:18;;;;;;;90.40;82.40;;;;;;;21.00;100.00;100583.38;5054316;28;20049;-81
2023/07/03 04:25:46;;;;;;;91.72;83.93;;;;;;;21.02;100.00;100581.97;5061646;28;20045;-81
2023/07/03 04:28:16;;;;;;;88.68;80.88;;;;;;;21.14;100.00;100591.66;5061883;28;20052;-81
2023/07/03 04:30:43;;;;;;;90.00;82.50;;;;;;;21.16;100.00;100584.88;5069788;28;20414;-81
2023/07/03 04:33:10;;;;;;;96.97;88.88;;;;;;;21.23;100.00;100588.06;5061750;28;20045;-80
2023/07/03 04:35:37;;;;;;;91.85;84.32;;;;;;;21.38;100.00;100592.59;5060964;28;20049;-81
2023/07/03 04:38:04;;;;;;;93.70;85.88;;;;;;;21.50;100.00;100592.25;5061171;28;20048;-81
2023/07/03 04:40:31;;;;;;;92.97;84.85;;;;;;;21.62;100.00;100598.09;5061129;28;20045;-81
2023/07/03 04:42:59;;;;;;;87.95;80.53;;;;;;;21.68;100.00;100593.47;5059997;28;20422;-81
2023/07/03 04:45:28;;;;;;;91.75;83.90;;;;;;;21.79;100.00;100589.59;5061282;28;20049;-81
2023/07/03 04:47:55;;;;;;;94.13;85.75;;;;;;;21.89;100.00;100597.59;5065129;28;20060;-81
2023/07/03 04:50:24;;;;;;;87.80;80.22;;;;;;;21.95;100.00;100592.97;5061359;28;20048;-81
2023/07/03 04:52:52;;;;;;;89.85;82.35;;;;;;;21.74;100.00;100600.44;5055539;28;20049;-81
2023/07/03 04:55:19;;;;;;;83.75;76.68;;;;;;;22.05;100.00;100595.56;5066174;28;20140;-81
2023/07/03 04:57:46;;;;;;;85.60;78.50;;;;;;;22.29;100.00;100603.72;5063021;28;20118;-81
2023/07/03 05:00:16;;;;;;;84.60;77.40;;;;;;;22.28;100.00;100598.63;5054333;28;20103;-81
2023/07/03 05:02:46;;;;;;;74.38;68.25;;;;;;;22.51;100.00;100607.81;5060680;28;20056;-81
2023/07/03 05:05:14;;;;;;;77.35;70.75;;;;;;;22.42;100.00;100596.81;5058185;28;20060;-82
2023/07/03 05:07:43;;;;;;;83.53;76.53;;;;;;;22.66;100.00;100607.63;5061256;28;20427;-81
2023/07/03 05:10:12;;;;;;;84.20;77.53;;;;;;;22.43;100.00;100598.44;5060239;28;20049;-81
2023/07/03 05:12:39;;;;;;;80.35;73.75;;;;;;;22.63;100.00;100597.38;5063290;28;20053;-81
2023/07/03 05:15:08;;;;;;;74.80;68.50;;;;;;;22.68;100.00;100602.75;5058078;28;20147;-81
2023/07/03 05:17:38;;;;;;;76.70;70.53;;;;;;;22.73;100.00;100605.41;5060523;28;20044;-81
2023/07/03 05:20:10;;;;;;;69.82;63.83;;;;;;;22.70;100.00;100603.28;5056315;28;20059;-82
2023/07/03 05:22:37;;;;;;;69.40;63.70;;;;;;;22.94;100.00;100605.16;5051131;28;20064;-81
2023/07/03 05:25:05;;;;;;;71.75;65.53;;;;;;;22.97;100.00;100607.31;5050761;28;20051;-81
2023/07/03 05:27:33;;;;;;;74.88;68.50;;;;;;;22.98;100.00;100611.63;5051013;28;20049;-81
2023/07/03 05:30:00;;;;;;;69.78;64.20;;;;;;;23.28;100.00;100607.69;5051653;28;20071;-81
2023/07/03 05:32:27;;;;;;;65.97;60.67;;;;;;;23.47;100.00;100615.78;5061967;28;20048;-80
2023/07/03 05:34:54;;;;;;;65.15;59.63;;;;;;;23.41;100.00;100612.34;5060111;28;20079;-81
2023/07/03 05:37:22;;;;;;;62.33;57.10;;;;;;;23.43;100.00;100614.78;5059912;28;20052;-82
2023/07/03 05:39:49;;;;;;;61.67;56.47;;;;;;;22.97;100.00;100615.44;5059893;28;20057;-81
2023/07/03 05:42:17;;;;;;;71.72;66.07;;;;;;;22.63;100.00;100614.47;5058944;28;20060;-81
2023/07/03 05:44:44;;;;;;;78.10;72.10;;;;;;;22.74;100.00;100619.75;5060802;28;20049;-80
2023/07/03 05:47:11;;;;;;;57.13;52.33;;;;;;;23.81;100.00;100612.00;5057290;28;20048;-81
2023/07/03 05:49:38;;;;;;;64.10;58.70;;;;;;;23.34;100.00;100617.34;5062744;28;20479;-81
2023/07/03 05:52:06;;;;;;;71.05;65.35;;;;;;;23.77;100.00;100615.31;5062241;28;20061;-81
2023/07/03 05:54:34;;;;;;;68.28;62.53;;;;;;;23.58;100.00;100600.97;5064193;28;20052;-81
2023/07/03 05:57:04;;;;;;;64.13;58.85;;;;;;;23.28;100.00;100615.81;5058875;28;20049;-81
2023/07/03 05:59:31;;;;;;;71.22;65.30;;;;;;;23.42;100.00;100622.09;5059824;28;20055;-82
2023/07/03 06:01:58;;;;;;;69.82;63.50;;;;;;;23.65;100.00;100611.44;5067398;28;20052;-81
2023/07/03 06:04:25;;;;;;;68.15;61.63;;;;;;;23.67;100.00;100618.19;5054148;28;20449;-82
2023/07/03 06:06:55;;;;;;;65.65;60.00;;;;;;;23.57;100.00;100622.94;5059556;28;20044;-81
2023/07/03 06:09:22;;;;;;;66.10;60.40;;;;;;;23.51;100.00;100630.34;5059777;28;20067;-81
2023/07/03 06:11:51;;;;;;;60.17;54.67;;;;;;;23.61;100.00;100632.91;5051571;28;20060;-81
2023/07/03 06:14:18;;;;;;;59.15;54.05;;;;;;;23.76;100.00;100630.00;5054756;28;20055;-81
2023/07/03 06:16:46;;;;;;;53.78;49.17;;;;;;;24.10;100.00;100625.34;5050014;28;20044;-81
2023/07/03 06:19:14;;;;;;;61.60;56.10;;;;;;;23.93;100.00;100624.03;5057738;28;20048;-81
2023/07/03 06:21:41;;;;;;;70.88;64.97;;;;;;;24.18;100.00;100625.47;5063391;28;20609;-80
2023/07/03 06:24:10;;;;;;;59.30;54.00;;;;;;;23.89;100.00;100627.63;5056055;28;20048;-81
2023/07/03 06:26:39;;;;;;;57.85;52.38;;;;;;;24.06;100.00;100621.66;5057161;28;20049;-80
2023/07/03 06:29:08;;;;;;;61.22;55.97;;;;;;;24.32;100.00;100620.06;5062472;28;20048;-80
2023/07/03 06:31:35;;;;;;;56.97;51.47;;;;;;;24.47;100.00;100624.41;5064379;28;20145;-81
2023/07/03 06:34:03;;;;;;;50.65;46.10;;;;;;;24.42;100.00;100621.81;5059620;28;20087;-81
2023/07/03 06:36:31;;;;;;;54.22;49.42;;;;;;;24.38;100.00;100634.34;5057146;28;20072;-81
2023/07/03 06:39:00;;;;;;;54.80;50.00;;;;;;;24.55;100.00;100622.91;5059949;28;20055;-81
2023/07/03 06:41:29;;;;;;;50.20;45.63;;;;;;;24.36;100.00;100625.72;5059343;28;20425;-81
2023/07/03 06:43:56;;;;;;;51.03;46.35;;;;;;;24.39;100.00;100620.47;5060014;28;20052;-81
2023/07/03 06:46:25;;;;;;;48.35;44.05;;;;;;;24.43;100.00;100624.22;5060935;28;20049;-81
2023/07/03 06:48:55;;;;;;;48.97;44.15;;;;;;;24.62;100.00;100618.69;5058124;28;20044;-81
2023/07/03 06:51:22;;;;;;;46.47;42.03;;;;;;;24.84;100.00;100619.88;5061575;28;20049;-81
2023/07/03 06:53:49;;;;;;;40.65;37.25;;;;;;;25.34;100.00;100626.13;5055685;28;20044;-81
2023/07/03 06:56:16;;;;;;;41.50;37.90;;;;;;;25.22;100.00;100625.06;5061300;28;20487;-82
2023/07/03 06:58:42;;;;;;;45.53;41.60;;;;;;;25.26;100.00;100628.78;5063055;28;20048;-82
2023/07/03 07:01:11;;;;;;;41.83;37.95;;;;;;;25.56;100.00;100625.34;5061671;28;20502;-81
2023/07/03 07:03:40;;;;;;;43.15;39.33;;;;;;;25.52;100.00;100621.63;5059917;28;20568;-81
2023/07/03 07:06:12;;;;;;;35.08;32.20;;;;;;;25.49;100.00;100629.63;5049697;28;20091;-81
2023/07/03 07:08:39;;;;;;;36.85;33.55;;;;;;;25.12;100.00;100636.94;5061086;28;20048;-80
2023/07/03 07:11:09;;;;;;;37.00;33.60;;;;;;;25.04;100.00;100634.94;5061716;28;20529;-81
2023/07/03 07:13:37;;;;;;;43.10;39.47;;;;;;;25.27;100.00;100624.97;5057663;28;20076;-80
2023/07/03 07:16:04;;;;;;;45.17;41.42;;;;;;;25.13;100.00;100633.13;5058664;28;20415;-79
2023/07/03 07:18:31;;;;;;;41.88;37.53;;;;;;;25.55;100.00;100628.38;5061362;28;20045;-81
2023/07/03 07:21:01;;;;;;;79.82;42.05;;;;;;;25.69;100.00;100640.00;5058799;28;20045;-81
2023/07/03 07:23:27;;;;;;;43.72;40.38;;;;;;;25.99;100.00;100641.19;5056506;28;20040;-82
2023/07/03 07:25:55;;;;;;;41.45;38.10;;;;;;;25.70;100.00;100628.00;5060828;28;20052;-81
2023/07/03 07:28:22;;;;;;;42.72;39.60;;;;;;;26.05;100.00;100644.56;5056687;28;20045;-81
2023/07/03 07:30:49;;;;;;;40.25;37.17;;;;;;;26.03;100.00;100639.44;5066541;28;20435;-82
2023/07/03 07:33:17;;;;;;;39.63;36.72;;;;;;;26.18;100.00;100634.72;5059836;28;20055;-80
2023/07/03 07:35:44;;;;;;;37.88;35.08;;;;;;;26.34;100.00;100638.63;5058424;28;20044;-81
2023/07/03 07:38:13;;;;;;;36.83;34.10;;;;;;;26.08;100.00;100640.41;5061017;28;20061;-81
2023/07/03 07:40:40;;;;;;;38.53;35.42;;;;;;;26.04;100.00;100648.41;5055868;28;20060;-82
2023/07/03 07:43:08;;;;;;;43.28;39.63;;;;;;;25.69;100.00;100642.72;5062874;28;20048;-81
2023/07/03 07:45:37;;;;;;;38.28;35.20;;;;;;;26.37;100.00;100640.72;5058368;28;20426;-81
2023/07/03 07:48:04;;;;;;;38.85;35.72;;;;;;;26.43;100.00;100646.84;5065124;28;20517;-81
2023/07/03 07:50:35;;;;;;;41.92;38.88;;;;;;;26.24;100.00;100642.44;5061959;28;20045;-82
2023/07/03 07:53:02;;;;;;;33.22;30.10;;;;;;;26.52;100.00;100644.97;5067387;28;20181;-81
2023/07/03 07:55:30;;;;;;;38.80;35.85;;;;;;;26.72;100.00;100636.25;5061785;28;20049;-81
2023/07/03 07:57:57;;;;;;;39.00;36.05;;;;;;;26.53;100.00;100643.06;5053230;28;20057;-81
2023/07/03 08:00:24;;;;;;;41.88;38.58;;;;;;;26.91;100.00;100635.16;5055102;28;20533;-81
2023/07/03 08:02:51;;;;;;;40.33;37.03;;;;;;;26.45;100.00;100650.88;5066153;28;20086;-81
2023/07/03 08:05:18;;;;;;;36.20;32.92;;;;;;;26.46;100.00;100643.50;5066494;28;20052;-81
2023/07/03 08:07:45;;;;;;;35.80;32.88;;;;;;;26.64;100.00;100649.84;5058440;28;20056;-81
2023/07/03 08:10:12;;;;;;;34.00;31.40;;;;;;;26.86;100.00;100640.75;5062275;28;20145;-82
2023/07/03 08:12:40;;;;;;;33.35;30.75;;;;;;;26.65;100.00;100648.72;5062190;28;20625;-82
2023/07/03 08:15:08;;;;;;;28.80;26.40;;;;;;;27.06;100.00;100645.59;5063096;28;20048;-81
2023/07/03 08:17:36;;;;;;;28.42;26.23;;;;;;;27.15;100.00;100646.44;5058699;28;20053;-81
2023/07/03 08:20:08;;;;;;;26.15;24.05;;;;;;;27.36;100.00;100652.09;5060277;28;20056;-82
2023/07/03 08:22:35;;;;;;;28.33;25.98;;;;;;;27.38;100.00;100649.84;5060112;28;20048;-82
2023/07/03 08:25:01;;;;;;;27.40;25.02;;;;;;;27.08;100.00;100657.00;5066285;28;20079;-80
2023/07/03 08:27:28;;;;;;;28.35;25.95;;;;;;;27.19;100.00;100652.06;5053473;28;20052;-80
2023/07/03 08:29:57;;;;;;;27.90;25.70;;;;;;;27.54;100.00;100657.53;5063764;28;20059;-81
2023/07/03 08:32:24;;;;;;;34.67;31.80;;;;;;;27.48;100.00;100658.84;5063600;28;20044;-81
2023/07/03 08:34:51;;;;;;;31.50;29.10;;;;;;;27.60;100.00;100648.06;5051441;28;20053;-81
2023/07/03 08:37:18;;;;;;;38.08;30.58;;;;;;;27.62;100.00;100654.00;5052099;28;20049;-81
2023/07/03 08:39:45;;;;;;;32.15;29.67;;;;;;;27.37;100.00;100661.84;5052040;28;20067;-82
2023/07/03 08:42:16;;;;;;;33.08;30.63;;;;;;;27.68;100.00;100658.16;5052110;28;20434;-81
2023/07/03 08:44:43;;;;;;;33.08;29.98;;;;;;;28.09;100.00;100665.03;5057175;28;20048;-81
2023/07/03 08:47:16;;;;;;;32.65;29.77;;;;;;;27.83;100.00;100657.69;5069303;28;20051;-81
2023/07/03 08:49:45;;;;;;;29.98;27.70;;;;;;;27.31;100.00;100652.22;5065648;28;20071;-81
2023/07/03 08:52:17;;;;;;;29.52;27.23;;;;;;;28.01;100.00;100665.84;5061363;28;20544;-81
2023/07/03 08:54:44;;;;;;;27.67;25.33;;;;;;;27.47;100.00;100670.84;5058295;28;20045;-82
2023/07/03 08:57:12;;;;;;;31.40;28.70;;;;;;;27.91;100.00;100661.53;5061781;28;20053;-82
2023/07/03 08:59:39;;;;;;;31.13;28.80;;;;;;;28.15;100.00;100671.91;5061731;28;20055;-81
2023/07/03 09:02:20;;;;;;;26.90;24.60;;;;;;;28.38;100.00;100667.00;5059412;28;20059;-81
2023/07/03 09:05:04;;;;;;;28.23;26.02;;;;;;;28.14;100.00;100669.50;5055829;28;20114;-81
2023/07/03 09:07:37;;;;;;;27.17;25.08;;;;;;;27.76;100.00;100662.81;5058794;28;20036;-82
2023/07/03 09:10:12;;;;;;;27.35;25.13;;;;;;;27.91;100.00;100667.00;5055592;28;20135;-81
2023/07/03 09:12:43;;;;;;;28.13;25.92;;;;;;;28.28;100.00;100670.91;5058415;28;20055;-81
2023/07/03 09:15:15;;;;;;;28.42;26.08;;;;;;;27.60;100.00;100673.41;5059658;28;20057;-81
2023/07/03 09:17:46;;;;;;;29.20;27.00;;;;;;;28.05;100.00;100666.81;5062853;28;20057;-82
2023/07/03 09:20:15;;;;;;;27.45;25.00;;;;;;;27.78;100.00;100659.81;5061523;28;20056;-81
2023/07/03 09:22:47;;;;;;;24.40;22.33;;;;;;;28.23;100.00;100657.44;5061251;28;20446;-81
2023/07/03 09:25:24;;;;;;;24.98;22.77;;;;;;;28.31;100.00;100659.31;5062098;28;20516;-81
2023/07/03 09:27:55;;;;;;;25.63;23.40;;;;;;;28.23;100.00;100654.72;5061207;28;20051;-81
2023/07/03 09:30:22;;;;;;;25.05;22.88;;;;;;;28.84;100.00;100657.19;5051586;28;20442;-81
2023/07/03 09:32:51;;;;;;;24.10;22.10;;;;;;;28.11;100.00;100660.06;5062671;28;20052;-82
2023/07/03 09:35:20;;;;;;;25.58;23.58;;;;;;;28.39;100.00;100657.72;5062531;28;20048;-81
2023/07/03 09:37:50;;;;;;;24.42;22.27;;;;;;;28.61;100.00;100650.41;5056080;28;20053;-80
2023/07/03 09:40:22;;;;;;;26.70;24.40;;;;;;;28.40;100.00;100658.50;5050930;28;20107;-81
2023/07/03 09:42:49;;;;;;;;;;;;;;;28.92;100.00;100658.25;5051361;28;20449;-81
2023/07/03 09:45:18;;;;;;;27.85;25.50;;;;;;;29.78;100.00;100648.63;5056365;28;19921;-81
2023/07/03 09:47:50;;;;;;;25.80;23.60;;;;;;;29.52;100.00;100648.03;5060922;28;20048;-81
2023/07/03 09:50:25;;;;;;;23.70;21.80;;;;;;;28.96;100.00;100657.28;5059153;28;20052;-82
2023/07/03 09:52:55;;;;;;;26.38;24.38;;;;;;;29.47;100.00;100646.28;5057374;28;20094;-81
2023/07/03 09:55:22;;;;;;;26.73;24.63;;;;;;;29.78;100.00;100642.38;5062321;28;20056;-81
2023/07/03 09:57:49;;;;;;;25.50;23.42;;;;;;;29.08;100.00;100653.03;5050753;28;20441;-81
2023/07/03 10:00:19;;;;;;;27.45;25.00;;;;;;;29.08;100.00;100650.31;5050771;28;20049;-81
2023/07/03 10:02:46;;;;;;;26.55;24.45;;;;;;;29.77;100.00;100641.53;5050680;28;20114;-81
2023/07/03 10:05:17;;;;;;;27.30;25.00;;;;;;;29.72;100.00;100635.50;5057258;28;20060;-81
2023/07/03 10:07:46;;;;;;;25.05;22.95;;;;;;;29.75;100.00;100632.88;5058765;28;20059;-81
2023/07/03 10:10:15;;;;;;;25.38;23.42;;;;;;;29.75;100.00;100632.09;5060223;28;20063;-81
2023/07/03 10:12:52;;;;;;;27.15;25.23;;;;;;;29.31;100.00;100634.38;5063827;28;20053;-81
2023/07/03 10:15:26;;;;;;;26.83;24.80;;;;;;;29.44;100.00;100641.50;5057195;28;20056;-81
2023/07/03 10:17:57;;;;;;;27.85;25.65;;;;;;;29.77;100.00;100636.06;5060484;28;20048;-81
2023/07/03 10:20:28;;;;;;;25.83;23.73;;;;;;;30.26;100.00;100638.13;5052712;28;20445;-82
2023/07/03 10:22:59;;;;;;;26.30;24.10;;;;;;;29.58;100.00;100641.22;5059303;28;20044;-81
2023/07/03 10:25:31;;;;;;;30.80;28.20;;;;;;;29.02;100.00;100644.25;5061188;28;20057;-80
2023/07/03 10:28:06;;;;;;;29.02;26.83;;;;;;;30.22;100.00;100634.50;5055738;28;20502;-81
2023/07/03 10:30:36;;;;;;;29.50;27.00;;;;;;;29.66;100.00;100634.91;5052221;28;20052;-81
2023/07/03 10:33:10;;;;;;;40.60;37.70;;;;;;;28.46;100.00;100632.63;5059506;28;20049;-81
2023/07/03 10:35:41;;;;;;;38.38;35.72;;;;;;;29.73;100.00;100626.16;5060989;28;20053;-82
2023/07/03 10:38:23;;;;;;;36.88;34.28;;;;;;;29.27;100.00;100622.53;5061366;28;20453;-81
2023/07/03 10:40:57;;;;;;;39.13;36.20;;;;;;;29.49;100.00;100622.16;5058607;28;20438;-82
2023/07/03 10:43:29;;;;;;;35.22;32.80;;;;;;;29.68;100.00;100624.41;5062287;28;20059;-81
2023/07/03 10:45:58;;;;;;;34.97;32.67;;;;;;;30.74;100.00;100631.06;5061144;28;20044;-82
2023/07/03 10:48:29;;;;;;;42.10;39.40;;;;;;;30.05;100.00;100630.00;5055268;28;20053;-81
2023/07/03 10:51:08;;;;;;;36.85;34.45;;;;;;;29.98;100.00;100633.28;5059300;28;20056;-81
2023/07/03 10:53:42;;;;;;;36.90;34.50;;;;;;;30.66;100.00;100626.53;5052644;28;20055;-82
2023/07/03 10:56:17;;;;;;;27.17;25.10;;;;;;;30.07;100.00;100628.50;5058961;28;20053;-80
2023/07/03 10:58:52;;;;;;;31.45;28.85;;;;;;;30.87;100.00;100623.66;5054922;28;20048;-81
2023/07/03 11:01:24;;;;;;;27.52;25.33;;;;;;;30.19;100.00;100630.47;5059311;28;20442;-80
2023/07/03 11:04:00;;;;;;;26.25;24.20;;;;;;;29.78;100.00;100634.16;5060972;28;20534;-80
2023/07/03 11:06:33;;;;;;;25.80;23.70;;;;;;;30.45;100.00;100626.63;5056640;28;20546;-82
2023/07/03 11:09:07;;;;;;;25.88;23.38;;;;;;;32.13;100.00;100628.75;5061756;28;20060;-82